createdAt,value
2018-09-27T00:01:51.238Z,8.96
2018-09-27T00:04:20.024Z,8.91
2018-09-27T00:06:49.114Z,8.90
2018-09-27T00:09:18.281Z,8.90
2018-09-27T00:11:47.114Z,8.89
2018-09-27T00:14:15.797Z,8.85
2018-09-27T00:16:44.856Z,8.81
2018-09-27T00:19:13.626Z,8.77
2018-09-27T00:21:42.593Z,8.77
2018-09-27T00:24:11.462Z,8.78
2018-09-27T00:26:40.291Z,8.79
2018-09-27T00:29:09.174Z,8.77
2018-09-27T00:31:37.975Z,8.82
2018-09-27T00:34:06.903Z,8.73
2018-09-27T00:36:35.633Z,8.66
2018-09-27T00:39:05.492Z,8.67
2018-09-27T00:41:34.241Z,8.57
2018-09-27T00:44:02.910Z,8.51
2018-09-27T00:46:31.810Z,8.48
2018-09-27T00:49:00.646Z,8.43
2018-09-27T00:51:29.405Z,8.32
2018-09-27T00:53:58.083Z,8.22
2018-09-27T00:56:27.454Z,8.27
2018-09-27T00:58:56.166Z,8.26
2018-09-27T01:01:24.875Z,8.29
2018-09-27T01:03:53.671Z,8.29
2018-09-27T01:06:22.498Z,8.35
2018-09-27T01:08:51.857Z,8.36
2018-09-27T01:11:20.653Z,8.36
2018-09-27T01:13:49.468Z,8.36
2018-09-27T01:16:18.649Z,8.34
2018-09-27T01:18:47.314Z,8.33
2018-09-27T01:21:16.293Z,8.33
2018-09-27T01:23:45.219Z,8.30
2018-09-27T01:26:14.038Z,8.30
2018-09-27T01:28:42.951Z,8.29
2018-09-27T01:31:11.741Z,8.26
2018-09-27T01:33:40.593Z,8.29
2018-09-27T01:36:09.403Z,8.25
2018-09-27T01:38:38.127Z,8.23
2018-09-27T01:41:07.362Z,8.20
2018-09-27T01:43:36.338Z,8.06
2018-09-27T01:46:05.349Z,8.12
2018-09-27T01:48:34.258Z,8.13
2018-09-27T01:51:02.998Z,8.06
2018-09-27T01:53:31.798Z,8.03
2018-09-27T01:56:00.446Z,8.04
2018-09-27T01:58:29.220Z,8.03
2018-09-27T02:00:57.984Z,7.97
2018-09-27T02:03:26.865Z,7.96
2018-09-27T02:05:55.980Z,7.83
2018-09-27T02:08:24.714Z,7.74
2018-09-27T02:10:53.625Z,7.77
2018-09-27T02:13:22.329Z,7.67
2018-09-27T02:15:51.521Z,7.64
2018-09-27T02:18:20.321Z,7.68
2018-09-27T02:20:48.994Z,7.67
2018-09-27T02:23:17.819Z,7.74
2018-09-27T02:25:46.502Z,7.71
2018-09-27T02:28:15.260Z,7.77
2018-09-27T02:30:44.103Z,7.83
2018-09-27T02:33:12.834Z,7.88
2018-09-27T02:35:41.513Z,7.81
2018-09-27T02:38:10.178Z,7.80
2018-09-27T02:40:39.004Z,7.84
2018-09-27T02:43:07.913Z,7.86
2018-09-27T02:45:36.680Z,7.85
2018-09-27T02:48:05.322Z,7.87
2018-09-27T02:50:34.071Z,7.85
2018-09-27T02:53:02.842Z,7.79
2018-09-27T02:55:31.602Z,7.78
2018-09-27T02:58:00.352Z,7.81
2018-09-27T03:00:29.004Z,7.83
2018-09-27T03:02:57.802Z,7.85
2018-09-27T03:05:26.562Z,7.80
2018-09-27T03:07:55.396Z,7.79
2018-09-27T03:10:24.194Z,7.74
2018-09-27T03:12:52.955Z,7.78
2018-09-27T03:15:21.650Z,7.80
2018-09-27T03:17:50.301Z,7.77
2018-09-27T03:20:19.146Z,7.77
2018-09-27T03:22:47.882Z,7.62
2018-09-27T03:25:16.570Z,7.58
2018-09-27T03:27:45.411Z,7.41
2018-09-27T03:30:14.142Z,7.50
2018-09-27T03:32:42.895Z,7.56
2018-09-27T03:35:11.650Z,7.53
2018-09-27T03:37:40.285Z,7.45
2018-09-27T03:40:09.154Z,7.40
2018-09-27T03:42:37.878Z,7.32
2018-09-27T03:45:06.616Z,7.38
2018-09-27T03:47:35.270Z,7.44
2018-09-27T03:50:03.958Z,7.50
2018-09-27T03:52:32.682Z,7.47
2018-09-27T03:55:01.424Z,7.46
2018-09-27T03:57:30.212Z,7.42
2018-09-27T03:59:58.907Z,7.48
2018-09-27T04:02:27.577Z,7.50
2018-09-27T04:04:56.350Z,7.44
2018-09-27T04:07:25.094Z,7.43
2018-09-27T04:09:53.728Z,7.39
2018-09-27T04:12:22.466Z,7.31
2018-09-27T04:14:51.123Z,7.32
2018-09-27T04:17:19.753Z,7.35
2018-09-27T04:19:48.844Z,7.36
2018-09-27T04:22:17.490Z,7.19
2018-09-27T04:24:46.178Z,7.23
2018-09-27T04:27:14.880Z,7.27
2018-09-27T04:29:43.808Z,7.26
2018-09-27T04:32:13.209Z,7.23
2018-09-27T04:34:42.018Z,7.21
2018-09-27T04:37:10.750Z,7.23
2018-09-27T04:39:39.460Z,7.21
2018-09-27T04:42:08.137Z,7.25
2018-09-27T04:44:36.855Z,7.25
2018-09-27T04:47:05.703Z,7.28
2018-09-27T04:49:34.394Z,7.25
2018-09-27T04:52:03.542Z,7.20
2018-09-27T04:54:32.306Z,7.22
2018-09-27T04:57:01.043Z,7.24
2018-09-27T04:59:29.787Z,7.19
2018-09-27T05:01:58.534Z,7.18
2018-09-27T05:04:27.370Z,7.21
2018-09-27T05:06:56.136Z,7.09
2018-09-27T05:09:24.875Z,7.11
2018-09-27T05:11:53.615Z,7.09
2018-09-27T05:14:22.258Z,7.06
2018-09-27T05:16:50.952Z,7.05
2018-09-27T05:19:19.891Z,7.02
2018-09-27T05:21:48.651Z,7.10
2018-09-27T05:24:17.345Z,7.11
2018-09-27T07:55:40.243Z,11.73
2018-09-27T07:58:09.536Z,11.91
2018-09-27T08:00:38.596Z,12.08
2018-09-27T08:03:07.313Z,12.24
2018-09-27T08:05:35.993Z,12.31
2018-09-27T08:08:04.675Z,12.38
2018-09-27T08:10:33.490Z,12.53
2018-09-27T08:13:02.273Z,12.74
2018-09-27T08:15:31.161Z,12.90
2018-09-27T08:17:59.842Z,12.92
2018-09-27T08:20:28.819Z,13.01
2018-09-27T08:22:57.850Z,13.09
2018-09-27T08:25:26.509Z,13.28
2018-09-27T08:27:55.193Z,13.39
2018-09-27T08:30:24.110Z,13.45
2018-09-27T08:32:53.007Z,13.66
2018-09-27T08:35:22.113Z,13.84
2018-09-27T08:37:50.834Z,14.02
2018-09-27T08:40:19.538Z,14.09
2018-09-27T08:42:48.445Z,14.16
2018-09-27T08:45:17.433Z,14.23
2018-09-27T08:47:46.061Z,14.35
2018-09-27T08:50:14.942Z,14.28
2018-09-27T08:52:43.617Z,14.46
2018-09-27T08:55:12.345Z,14.54
2018-09-27T08:57:41.085Z,14.64
2018-09-27T09:00:09.932Z,14.86
2018-09-27T09:02:38.596Z,14.90
2018-09-27T09:05:07.368Z,15.04
2018-09-27T09:07:36.163Z,15.07
2018-09-27T09:10:05.225Z,15.17
2018-09-27T09:12:33.902Z,15.20
2018-09-27T09:15:02.562Z,15.33
2018-09-27T09:17:31.422Z,15.38
2018-09-27T09:20:00.192Z,15.51
2018-09-27T09:22:29.066Z,15.57
2018-09-27T09:24:58.078Z,15.79
2018-09-27T09:27:26.813Z,15.91
2018-09-27T09:29:55.578Z,16.02
2018-09-27T09:32:24.564Z,16.14
2018-09-27T09:34:53.357Z,16.24
2018-09-27T09:37:22.141Z,16.37
2018-09-27T09:39:51.098Z,16.39
2018-09-27T09:42:19.957Z,16.56
2018-09-27T09:44:48.657Z,16.70
2018-09-27T09:47:17.457Z,16.71
2018-09-27T09:49:46.277Z,16.76
2018-09-27T09:52:15.054Z,16.95
2018-09-27T09:54:43.825Z,17.14
2018-09-27T09:57:12.543Z,17.21
2018-09-27T09:59:41.281Z,17.31
2018-09-27T10:02:10.274Z,17.50
2018-09-27T10:04:38.982Z,17.46
2018-09-27T10:07:07.751Z,17.44
2018-09-27T10:09:36.470Z,17.45
2018-09-27T10:12:05.151Z,17.38
2018-09-27T10:14:33.854Z,17.50
2018-09-27T10:17:02.517Z,17.51
2018-09-27T10:19:31.149Z,17.72
2018-09-27T10:22:00.073Z,17.88
2018-09-27T10:24:28.694Z,18.03
2018-09-27T10:26:57.406Z,18.06
2018-09-27T10:29:26.033Z,18.05
2018-09-27T10:31:54.721Z,18.06
2018-09-27T10:34:23.425Z,18.18
2018-09-27T10:36:52.166Z,18.29
2018-09-27T10:39:20.913Z,18.23
2018-09-27T10:41:49.601Z,18.35
2018-09-27T10:44:18.685Z,18.59
2018-09-27T10:46:47.613Z,18.68
2018-09-27T10:49:16.270Z,18.77
2018-09-27T10:51:44.976Z,18.85
2018-09-27T10:54:14.148Z,18.89
2018-09-27T10:56:43.167Z,19.13
2018-09-27T10:59:12.073Z,19.00
2018-09-27T11:01:40.801Z,19.16
2018-09-27T11:04:09.765Z,19.18
2018-09-27T11:06:38.480Z,19.19
2018-09-27T11:09:09.252Z,19.13
2018-09-27T11:11:38.473Z,19.07
2018-09-27T11:14:07.307Z,19.03
2018-09-27T11:16:36.069Z,19.26
2018-09-27T11:19:04.948Z,19.49
2018-09-27T11:21:33.795Z,19.73
2018-09-27T11:24:02.729Z,20.00
2018-09-27T11:26:31.466Z,20.03
2018-09-27T11:29:05.413Z,20.32
2018-09-27T11:31:39.296Z,20.43
2018-09-27T11:34:08.408Z,20.46
2018-09-27T11:36:37.104Z,20.63
2018-09-27T11:39:08.122Z,20.86
2018-09-27T11:41:37.250Z,21.14
2018-09-27T11:44:06.270Z,21.51
2018-09-27T11:46:35.213Z,21.59
2018-09-27T11:49:04.224Z,22.14
2018-09-27T11:51:32.937Z,22.57
2018-09-27T11:54:01.762Z,22.90
2018-09-27T11:56:30.459Z,23.67
2018-09-27T11:58:59.353Z,24.09
2018-09-27T12:01:28.291Z,24.54
2018-09-27T12:03:57.119Z,24.49
2018-09-27T12:06:25.843Z,24.46
2018-09-27T12:08:54.778Z,25.17
2018-09-27T12:11:23.549Z,25.65
2018-09-27T12:13:52.369Z,26.05
2018-09-27T12:16:21.231Z,27.46
2018-09-27T12:18:49.966Z,26.82
2018-09-27T12:21:18.652Z,27.37
2018-09-27T12:23:47.381Z,27.54
2018-09-27T12:26:16.095Z,26.65
2018-09-27T12:28:44.848Z,28.45
2018-09-27T12:31:13.470Z,26.87
2018-09-27T12:33:42.409Z,28.96
2018-09-27T12:36:11.306Z,28.71
2018-09-27T12:38:40.043Z,30.11
2018-09-27T12:41:08.793Z,28.83
2018-09-27T12:43:37.556Z,28.13
2018-09-27T12:46:06.585Z,30.25
2018-09-27T12:48:35.496Z,29.65
2018-09-27T12:51:04.745Z,30.14
2018-09-27T12:53:33.602Z,32.31
2018-09-27T12:56:02.405Z,33.00
2018-09-27T12:58:31.527Z,33.61
2018-09-27T13:01:00.299Z,33.98
2018-09-27T13:03:28.962Z,33.82
2018-09-27T13:05:57.854Z,34.45
2018-09-27T13:08:26.535Z,33.78
2018-09-27T13:10:55.377Z,34.54
2018-09-27T13:13:24.394Z,34.33
2018-09-27T13:15:53.091Z,35.74
2018-09-27T13:18:21.860Z,36.14
2018-09-27T13:20:50.546Z,36.31
2018-09-27T13:23:19.268Z,35.97
2018-09-27T13:25:48.057Z,36.23
2018-09-27T13:28:16.777Z,37.06
2018-09-27T13:30:45.826Z,37.19
2018-09-27T13:33:14.556Z,33.48
2018-09-27T13:35:43.230Z,35.81
2018-09-27T13:38:11.970Z,35.30
2018-09-27T13:40:40.758Z,34.74
2018-09-27T13:43:09.591Z,36.10
2018-09-27T13:45:38.225Z,37.26
2018-09-27T13:48:06.995Z,38.39
2018-09-27T13:50:36.807Z,37.94
2018-09-27T13:53:05.610Z,38.99
2018-09-27T13:55:34.654Z,37.79
2018-09-27T13:58:03.495Z,36.11
2018-09-27T14:00:32.225Z,35.28
2018-09-27T14:03:00.988Z,35.40
2018-09-27T14:05:29.748Z,32.86
2018-09-27T14:07:58.569Z,31.59
2018-09-27T14:10:27.212Z,29.77
2018-09-27T14:12:55.868Z,29.22
2018-09-27T14:15:24.731Z,28.44
2018-09-27T14:17:53.532Z,28.08
2018-09-27T14:20:22.422Z,28.00
2018-09-27T14:22:51.221Z,27.60
2018-09-27T14:25:20.066Z,27.00
2018-09-27T14:27:48.769Z,26.41
2018-09-27T14:30:17.460Z,25.64
2018-09-27T14:32:46.340Z,25.40
2018-09-27T14:35:15.145Z,24.70
2018-09-27T14:37:43.885Z,24.70
2018-09-27T14:40:12.830Z,24.30
2018-09-27T14:42:41.740Z,24.23
2018-09-27T14:45:10.521Z,24.10
2018-09-27T14:47:39.257Z,23.99
2018-09-27T14:50:08.088Z,23.85
2018-09-27T14:52:36.908Z,23.76
2018-09-27T14:55:05.779Z,23.66
2018-09-27T14:57:34.470Z,23.54
2018-09-27T15:00:03.165Z,23.43
2018-09-27T15:02:31.963Z,23.37
2018-09-27T15:05:00.643Z,23.25
2018-09-27T15:07:29.353Z,23.11
2018-09-27T15:09:58.219Z,23.05
2018-09-27T15:12:26.884Z,23.02
2018-09-27T15:14:55.753Z,22.95
2018-09-27T15:17:24.489Z,22.89
2018-09-27T15:19:53.264Z,22.84
2018-09-27T15:22:22.049Z,22.82
2018-09-27T15:24:50.798Z,22.75
2018-09-27T15:27:19.436Z,22.73
2018-09-27T15:29:48.315Z,22.71
2018-09-27T15:32:16.965Z,22.69
2018-09-27T15:34:45.652Z,22.59
2018-09-27T15:37:14.365Z,22.68
2018-09-27T15:39:43.069Z,22.57
2018-09-27T15:42:12.047Z,22.45
2018-09-27T15:44:40.688Z,22.46
2018-09-27T15:47:09.382Z,22.42
2018-09-27T15:49:38.205Z,22.42
2018-09-27T15:52:07.008Z,22.35
2018-09-27T15:54:35.694Z,22.26
2018-09-27T15:57:04.429Z,22.24
2018-09-27T15:59:33.069Z,22.29
2018-09-27T16:02:01.758Z,22.40
2018-09-27T16:04:30.491Z,22.44
2018-09-27T16:06:59.204Z,22.48
2018-09-27T16:09:28.001Z,22.45
2018-09-27T16:11:56.708Z,22.34
2018-09-27T16:14:25.450Z,22.26
2018-09-27T16:16:54.449Z,22.18
2018-09-27T16:19:23.278Z,22.00
2018-09-27T16:21:51.906Z,21.91
2018-09-27T16:24:20.608Z,21.80
2018-09-27T16:26:49.313Z,21.76
2018-09-27T16:29:18.079Z,21.67
2018-09-27T16:31:46.910Z,21.53
2018-09-27T16:34:15.607Z,21.44
2018-09-27T16:36:44.363Z,21.33
2018-09-27T16:39:13.061Z,21.18
2018-09-27T16:41:41.886Z,21.08
2018-09-27T16:44:10.755Z,20.96
2018-09-27T16:46:39.405Z,20.81
2018-09-27T16:49:08.322Z,20.68
2018-09-27T16:51:37.117Z,20.62
2018-09-27T16:54:06.190Z,20.45
2018-09-27T16:56:35.960Z,20.35
2018-09-27T16:59:05.010Z,20.23
2018-09-27T17:01:33.665Z,20.12
2018-09-27T17:04:02.448Z,20.04
2018-09-27T17:06:31.061Z,19.87
2018-09-27T17:08:59.846Z,19.71
2018-09-27T17:11:28.674Z,19.58
2018-09-27T17:13:57.430Z,19.50
2018-09-27T17:16:26.268Z,19.36
2018-09-27T17:18:55.034Z,19.26
2018-09-27T17:21:23.877Z,19.18
2018-09-27T17:23:52.665Z,19.09
2018-09-27T17:26:21.421Z,19.01
2018-09-27T17:28:50.137Z,18.93
2018-09-27T17:31:18.968Z,18.88
2018-09-27T17:33:47.843Z,18.79
2018-09-27T17:36:16.766Z,18.71
2018-09-27T17:38:45.552Z,18.60
2018-09-27T17:41:14.342Z,18.53
2018-09-27T17:43:43.151Z,18.44
2018-09-27T17:46:12.022Z,18.35
2018-09-27T17:48:41.201Z,18.29
2018-09-27T17:51:10.077Z,18.23
2018-09-27T17:53:38.798Z,18.12
2018-09-27T17:56:07.671Z,18.00
2018-09-27T17:58:36.605Z,18.01
2018-09-27T18:01:05.772Z,17.95
2018-09-27T18:03:34.546Z,17.80
2018-09-27T18:06:03.318Z,17.68
2018-09-27T18:08:32.018Z,17.62
2018-09-27T18:11:00.733Z,17.55
2018-09-27T18:13:29.626Z,17.39
2018-09-27T18:15:58.367Z,17.29
2018-09-27T18:18:27.322Z,17.23
2018-09-27T18:20:55.961Z,17.13
2018-09-27T18:23:24.626Z,17.06
2018-09-27T18:25:53.460Z,16.99
2018-09-27T18:28:22.098Z,16.93
2018-09-27T18:30:50.786Z,16.88
2018-09-27T18:33:19.547Z,16.82
2018-09-27T18:35:48.442Z,16.72
2018-09-27T18:38:17.655Z,16.59
2018-09-27T18:40:46.262Z,16.55
2018-09-27T18:43:15.638Z,16.48
2018-09-27T18:45:44.301Z,16.48
2018-09-27T18:48:13.025Z,16.39
2018-09-27T18:50:42.072Z,16.34
2018-09-27T18:53:10.726Z,16.30
2018-09-27T18:55:39.430Z,16.29
2018-09-27T18:58:08.106Z,16.26
2018-09-27T19:00:36.900Z,16.23
2018-09-27T19:03:05.818Z,16.19
2018-09-27T19:05:34.641Z,16.15
2018-09-27T19:08:03.334Z,16.11
2018-09-27T19:10:32.374Z,16.03
2018-09-27T19:13:01.074Z,16.00
2018-09-27T19:15:29.863Z,15.99
2018-09-27T19:17:58.634Z,15.96
2018-09-27T19:20:27.456Z,15.92
2018-09-27T19:22:56.421Z,15.83
2018-09-27T19:25:25.105Z,15.84
2018-09-27T19:27:53.854Z,15.83
2018-09-27T19:30:22.597Z,15.76
2018-09-27T19:32:51.491Z,15.69
2018-09-27T19:35:20.305Z,15.63
2018-09-27T19:37:48.992Z,15.58
2018-09-27T19:40:17.638Z,15.51
2018-09-27T19:42:46.393Z,15.48
2018-09-27T19:45:15.102Z,15.45
2018-09-27T19:47:43.906Z,15.41
2018-09-27T19:50:12.615Z,15.38
2018-09-27T19:52:41.362Z,15.38
2018-09-27T19:55:10.198Z,15.37
2018-09-27T19:57:38.973Z,15.32
2018-09-27T20:00:07.912Z,15.28
2018-09-27T20:02:36.682Z,15.22
2018-09-27T20:05:06.038Z,15.19
2018-09-27T20:07:34.720Z,15.13
2018-09-27T20:10:03.644Z,15.19
2018-09-27T20:12:32.443Z,15.11
2018-09-27T20:15:01.386Z,15.07
2018-09-27T20:17:30.226Z,15.07
2018-09-27T20:19:58.985Z,15.00
2018-09-27T20:22:27.717Z,14.95
2018-09-27T20:24:56.467Z,14.92
2018-09-27T20:27:25.209Z,14.88
2018-09-27T20:29:53.913Z,14.80
2018-09-27T20:32:22.661Z,14.78
2018-09-27T20:34:51.377Z,14.71
2018-09-27T20:37:20.100Z,14.67
2018-09-27T20:39:48.823Z,14.62
2018-09-27T20:42:17.504Z,14.60
2018-09-27T20:44:46.213Z,14.58
2018-09-27T20:47:14.990Z,14.52
2018-09-27T20:49:43.941Z,14.46
2018-09-27T20:52:12.790Z,14.42
2018-09-27T20:54:41.469Z,14.42
2018-09-27T20:57:10.144Z,14.36
2018-09-27T20:59:39.021Z,14.28
2018-09-27T21:02:08.089Z,14.27
2018-09-27T21:04:36.743Z,14.25
2018-09-27T21:07:05.414Z,14.18
2018-09-27T21:09:34.168Z,14.16
2018-09-27T21:12:02.828Z,14.04
2018-09-27T21:14:31.510Z,14.00
2018-09-27T21:17:00.171Z,13.97
2018-09-27T21:19:28.920Z,13.89
2018-09-27T21:21:57.635Z,13.86
2018-09-27T21:24:26.337Z,13.82
2018-09-27T21:26:55.075Z,13.78
2018-09-27T21:29:23.707Z,13.70
2018-09-27T21:31:52.441Z,13.63
2018-09-27T21:34:21.226Z,13.52
2018-09-27T21:36:49.870Z,13.47
2018-09-27T21:39:18.718Z,13.40
2018-09-27T21:41:47.338Z,13.38
2018-09-27T21:44:16.030Z,13.32
2018-09-27T21:46:44.769Z,13.30
2018-09-27T21:49:13.509Z,13.28
2018-09-27T21:51:42.217Z,13.23
2018-09-27T21:54:10.893Z,13.20
2018-09-27T21:56:39.562Z,13.19
2018-09-27T21:59:08.261Z,13.17
2018-09-27T22:01:36.935Z,13.15
2018-09-27T22:04:05.799Z,13.21
2018-09-27T22:06:34.409Z,13.22
2018-09-27T22:09:03.187Z,13.20
2018-09-27T22:11:31.881Z,13.17
2018-09-27T22:14:00.509Z,13.08
2018-09-27T22:16:29.339Z,13.07
2018-09-27T22:18:58.071Z,13.07
2018-09-27T22:21:26.734Z,13.01
2018-09-27T22:23:55.448Z,12.96
2018-09-27T22:26:24.058Z,12.85
2018-09-27T22:28:52.789Z,12.84
2018-09-27T22:31:21.582Z,12.76
2018-09-27T22:33:50.223Z,12.67
2018-09-27T22:36:18.897Z,12.68
2018-09-27T22:38:47.665Z,12.62
2018-09-27T22:41:16.370Z,12.61
2018-09-27T22:43:45.009Z,12.59
2018-09-27T22:46:13.654Z,12.55
2018-09-27T22:48:42.344Z,12.53
2018-09-27T22:51:10.963Z,12.53
2018-09-27T22:53:39.941Z,12.51
2018-09-27T22:56:08.686Z,12.45
2018-09-27T22:58:37.290Z,12.42
2018-09-27T23:01:06.133Z,12.40
2018-09-27T23:03:34.736Z,12.36
2018-09-27T23:06:03.484Z,12.28
2018-09-27T23:08:32.113Z,12.25
2018-09-27T23:11:00.775Z,12.21
2018-09-27T23:13:29.477Z,12.19
2018-09-27T23:15:58.148Z,12.15
2018-09-27T23:18:27.269Z,12.07
2018-09-27T23:20:55.941Z,12.03
2018-09-27T23:23:24.574Z,11.92
2018-09-27T23:25:53.253Z,11.91
2018-09-27T23:28:21.946Z,11.86
2018-09-27T23:30:50.724Z,11.86
2018-09-27T23:33:19.358Z,11.87
2018-09-27T23:35:48.065Z,11.88
2018-09-27T23:38:16.893Z,11.84
2018-09-27T23:40:46.469Z,11.84
2018-09-27T23:43:15.147Z,11.82
2018-09-27T23:45:43.941Z,11.79
2018-09-27T23:48:12.725Z,11.75
2018-09-27T23:50:41.765Z,11.69
2018-09-27T23:53:10.510Z,11.66
2018-09-27T23:55:39.547Z,11.64
2018-09-27T23:58:08.306Z,11.63
